createdAt,value
2023-05-02T00:00:16.233Z,4.86
2023-05-02T00:02:46.383Z,4.84
2023-05-02T00:05:13.929Z,4.82
2023-05-02T00:07:41.160Z,4.79
2023-05-02T00:10:09.329Z,4.80
2023-05-02T00:12:36.592Z,4.79
2023-05-02T00:15:04.656Z,4.77
2023-05-02T00:17:32.224Z,4.76
2023-05-02T00:20:09.618Z,4.82
2023-05-02T00:22:44.251Z,4.85
2023-05-02T00:25:16.439Z,4.86
2023-05-02T00:27:47.102Z,4.89
2023-05-02T00:30:15.120Z,4.99
2023-05-02T00:32:42.705Z,5.06
2023-05-02T00:35:10.592Z,5.07
2023-05-02T00:37:39.299Z,5.09
2023-05-02T00:40:08.431Z,5.10
2023-05-02T00:42:36.837Z,5.08
2023-05-02T00:45:06.702Z,5.06
2023-05-02T00:47:34.591Z,5.06
2023-05-02T00:50:02.638Z,5.04
2023-05-02T00:52:31.633Z,5.05
2023-05-02T00:55:00.641Z,5.04
2023-05-02T00:57:27.909Z,4.98
2023-05-02T00:59:55.350Z,4.94
2023-05-02T01:02:22.749Z,4.88
2023-05-02T01:05:00.815Z,4.82
2023-05-02T01:07:51.105Z,4.79
2023-05-02T01:10:21.439Z,4.77
2023-05-02T01:13:00.914Z,4.74
2023-05-02T01:15:31.637Z,4.70
2023-05-02T01:18:01.085Z,4.65
2023-05-02T01:20:29.251Z,4.61
2023-05-02T01:22:58.566Z,4.60
2023-05-02T01:26:03.865Z,4.58
2023-05-02T01:28:53.648Z,4.52
2023-05-02T01:31:20.822Z,4.45
2023-05-02T01:33:48.558Z,4.45
2023-05-02T01:36:17.379Z,4.46
2023-05-02T01:38:45.707Z,4.44
2023-05-02T01:41:14.292Z,4.42
2023-05-02T01:43:41.647Z,4.35
2023-05-02T01:46:13.836Z,4.29
2023-05-02T01:48:43.849Z,4.24
2023-05-02T01:51:12.627Z,4.24
2023-05-02T01:53:40.833Z,4.27
2023-05-02T01:56:07.883Z,4.27
2023-05-02T01:58:35.021Z,4.25
2023-05-02T02:01:04.433Z,4.21
2023-05-02T02:03:34.086Z,4.20
2023-05-02T02:06:01.401Z,4.23
2023-05-02T02:08:30.056Z,4.22
2023-05-02T02:11:02.018Z,4.20
2023-05-02T02:13:35.994Z,4.18
2023-05-02T02:16:06.041Z,4.16
2023-05-02T02:18:37.606Z,4.14
2023-05-02T02:21:12.222Z,4.12
2023-05-02T02:23:39.469Z,4.13
2023-05-02T02:26:14.610Z,4.13
2023-05-02T02:28:43.094Z,4.13
2023-05-02T02:31:10.761Z,4.16
2023-05-02T02:33:38.379Z,4.20
2023-05-02T02:36:23.996Z,4.24
2023-05-02T02:38:56.426Z,4.34
2023-05-02T02:41:29.558Z,4.42
2023-05-02T02:44:26.300Z,4.50
2023-05-02T02:47:23.364Z,4.59
2023-05-02T02:50:07.913Z,4.74
2023-05-02T02:52:48.064Z,4.92
2023-05-02T02:55:48.190Z,5.04
2023-05-02T02:58:41.051Z,5.11
2023-05-02T03:01:20.040Z,5.19
2023-05-02T03:03:51.274Z,5.27
2023-05-02T03:06:20.536Z,5.37
2023-05-02T03:08:49.307Z,5.48
2023-05-02T03:11:24.442Z,5.60
2023-05-02T03:13:53.546Z,5.73
2023-05-02T03:16:36.964Z,5.84
2023-05-02T03:19:12.019Z,5.93
2023-05-02T03:21:47.155Z,5.98
2023-05-02T03:24:19.507Z,6.07
2023-05-02T03:26:50.353Z,6.18
2023-05-02T03:29:22.008Z,6.29
2023-05-02T03:31:49.659Z,6.41
2023-05-02T03:34:16.905Z,6.52
2023-05-02T03:36:54.057Z,6.63
2023-05-02T03:39:26.389Z,6.71
2023-05-02T03:42:04.595Z,6.77
2023-05-02T03:44:31.843Z,6.84
2023-05-02T03:46:58.980Z,6.95
2023-05-02T03:49:28.395Z,7.06
2023-05-02T03:51:55.648Z,7.22
2023-05-02T03:54:29.463Z,7.37
2023-05-02T03:57:08.381Z,7.53
2023-05-02T03:59:37.582Z,7.68
2023-05-02T04:02:09.495Z,7.87
2023-05-02T04:04:41.377Z,8.09
2023-05-02T04:07:18.897Z,8.29
2023-05-02T04:09:49.649Z,8.50
2023-05-02T04:12:19.036Z,8.67
2023-05-02T04:14:51.624Z,8.85
2023-05-02T04:17:21.534Z,8.99
2023-05-02T04:19:50.318Z,9.14
2023-05-02T04:22:18.719Z,9.28
2023-05-02T04:24:52.306Z,9.41
2023-05-02T04:27:22.010Z,9.54
2023-05-02T04:29:50.037Z,9.63
2023-05-02T04:32:18.310Z,9.72
2023-05-02T04:34:46.183Z,9.81
2023-05-02T04:37:13.944Z,9.88
2023-05-02T04:39:43.245Z,9.98
2023-05-02T04:42:36.360Z,10.07
2023-05-02T04:45:12.722Z,10.18
2023-05-02T04:47:52.820Z,10.28
2023-05-02T04:50:20.165Z,10.41
2023-05-02T04:52:50.457Z,10.54
2023-05-02T04:55:17.505Z,10.65
2023-05-02T04:57:46.606Z,10.75
2023-05-02T05:00:16.118Z,10.87
2023-05-02T05:02:44.308Z,10.96
2023-05-02T05:05:13.716Z,11.03
2023-05-02T05:07:41.134Z,11.10
2023-05-02T05:10:11.375Z,11.14
2023-05-02T05:12:46.565Z,11.18
2023-05-02T05:15:14.696Z,11.23
2023-05-02T05:17:46.819Z,11.28
2023-05-02T05:20:14.224Z,11.33
2023-05-02T05:22:42.601Z,11.41
2023-05-02T05:25:11.819Z,11.49
2023-05-02T05:27:40.080Z,11.60
2023-05-02T05:30:09.403Z,11.72
2023-05-02T05:32:36.986Z,11.87
2023-05-02T05:35:05.012Z,12.03
2023-05-02T05:37:32.566Z,12.16
2023-05-02T05:40:22.045Z,12.26
2023-05-02T05:42:54.237Z,12.39
2023-05-02T05:45:31.293Z,12.53
2023-05-02T05:47:58.407Z,12.63
2023-05-02T05:50:32.045Z,12.74
2023-05-02T05:53:01.989Z,12.82
2023-05-02T05:55:32.249Z,12.92
2023-05-02T05:58:07.633Z,13.01
2023-05-02T06:00:41.986Z,13.11
2023-05-02T06:03:15.166Z,13.20
2023-05-02T06:05:42.596Z,13.27
2023-05-02T06:08:09.754Z,13.38
2023-05-02T06:10:40.284Z,13.44
2023-05-02T06:13:08.043Z,13.52
2023-05-02T06:15:38.633Z,13.57
2023-05-02T06:18:07.304Z,13.67
2023-05-02T06:20:37.002Z,13.82
2023-05-02T06:23:04.630Z,13.93
2023-05-02T06:25:33.236Z,14.05
2023-05-02T06:28:02.724Z,14.20
2023-05-02T06:30:29.771Z,14.33
2023-05-02T06:33:01.972Z,14.37
2023-05-02T06:35:29.291Z,14.39
2023-05-02T06:38:02.468Z,14.43
2023-05-02T06:40:29.947Z,14.47
2023-05-02T06:43:00.230Z,14.55
2023-05-02T06:45:33.723Z,14.68
2023-05-02T06:48:03.554Z,14.80
2023-05-02T06:50:30.930Z,14.89
2023-05-02T06:52:59.005Z,14.97
2023-05-02T06:55:27.382Z,15.14
2023-05-02T06:57:55.354Z,15.35
2023-05-02T07:00:22.573Z,15.37
2023-05-02T07:03:11.508Z,15.44
2023-05-02T07:05:39.142Z,15.56
2023-05-02T07:08:06.999Z,15.63
2023-05-02T07:10:34.159Z,15.71
2023-05-02T07:13:01.393Z,15.78
2023-05-02T07:15:28.460Z,15.80
2023-05-02T07:17:55.614Z,15.86
2023-05-02T07:20:23.430Z,15.94
2023-05-02T07:22:50.887Z,16.08
2023-05-02T07:25:18.320Z,16.18
2023-05-02T07:27:46.047Z,16.28
2023-05-02T07:30:13.830Z,16.44
2023-05-02T07:32:40.959Z,16.57
2023-05-02T07:35:08.480Z,16.79
2023-05-02T07:37:37.958Z,17.00
2023-05-02T07:40:06.237Z,17.15
2023-05-02T07:42:34.407Z,17.27
2023-05-02T07:45:01.482Z,17.48
2023-05-02T07:47:29.528Z,17.58
2023-05-02T07:49:57.067Z,17.49
2023-05-02T07:52:24.517Z,17.55
2023-05-02T07:54:52.164Z,17.67
2023-05-02T07:57:19.479Z,17.84
2023-05-02T07:59:46.531Z,17.97
2023-05-02T08:02:14.291Z,17.98
2023-05-02T08:04:43.462Z,18.04
2023-05-02T08:07:10.804Z,18.16
2023-05-02T08:09:38.015Z,18.27
2023-05-02T08:12:05.675Z,18.39
2023-05-02T08:14:32.648Z,18.56
2023-05-02T08:20:07.106Z,18.60
2023-05-02T08:22:34.517Z,18.69
2023-05-02T08:25:01.885Z,18.65
2023-05-02T08:27:28.916Z,18.67
2023-05-02T08:30:00.638Z,18.76
2023-05-02T08:32:29.523Z,18.93
2023-05-02T08:34:59.546Z,19.05
2023-05-02T08:37:26.921Z,19.15
2023-05-02T08:39:53.931Z,19.25
2023-05-02T08:42:23.327Z,19.28
2023-05-02T08:44:50.569Z,19.42
2023-05-02T08:47:18.950Z,19.45
2023-05-02T08:49:46.513Z,19.62
2023-05-02T08:52:13.726Z,19.75
2023-05-02T08:54:41.892Z,19.70
2023-05-02T08:57:09.059Z,19.60
2023-05-02T08:59:36.104Z,19.60
2023-05-02T09:02:27.926Z,19.59
2023-05-02T09:04:56.185Z,19.61
2023-05-02T09:07:23.447Z,19.82
2023-05-02T09:09:51.412Z,20.13
2023-05-02T09:12:26.533Z,20.35
2023-05-02T09:15:32.718Z,20.37
2023-05-02T09:18:21.141Z,20.17
2023-05-02T09:20:51.690Z,20.04
2023-05-02T09:23:21.013Z,20.02
2023-05-02T09:25:52.977Z,19.99
2023-05-02T09:28:20.228Z,20.01
2023-05-02T09:30:48.206Z,20.11
2023-05-02T09:33:16.547Z,20.11
2023-05-02T09:35:54.284Z,20.05
2023-05-02T09:38:27.374Z,20.08
2023-05-02T09:40:57.799Z,20.09
2023-05-02T09:43:25.158Z,20.11
2023-05-02T09:46:02.719Z,20.16
2023-05-02T09:48:31.140Z,20.29
2023-05-02T09:50:58.276Z,20.58
2023-05-02T09:53:27.743Z,20.86
2023-05-02T09:56:03.672Z,20.95
2023-05-02T09:58:31.336Z,21.00
2023-05-02T10:01:07.198Z,20.93
2023-05-02T10:03:38.212Z,20.83
2023-05-02T10:06:05.805Z,20.81
2023-05-02T10:08:33.869Z,20.78
2023-05-02T10:11:02.248Z,20.85
2023-05-02T10:13:32.879Z,20.93
2023-05-02T10:16:05.081Z,20.96
2023-05-02T10:19:04.118Z,21.05
2023-05-02T10:21:31.395Z,21.28
2023-05-02T10:23:59.496Z,21.38
2023-05-02T10:26:28.255Z,21.26
2023-05-02T10:28:57.777Z,21.15
2023-05-02T10:31:25.737Z,21.25
2023-05-02T10:33:53.076Z,21.46
2023-05-02T10:36:24.061Z,21.67
2023-05-02T10:38:51.497Z,21.98
2023-05-02T10:41:23.474Z,22.23
2023-05-02T10:43:50.899Z,22.54
2023-05-02T10:46:38.086Z,22.66
2023-05-02T10:49:15.296Z,22.69
2023-05-02T10:51:43.075Z,22.57
2023-05-02T10:54:16.661Z,22.27
2023-05-02T10:57:03.898Z,22.06
2023-05-02T10:59:41.288Z,22.11
2023-05-02T11:02:25.556Z,22.30
2023-05-02T11:05:06.015Z,22.37
2023-05-02T11:07:34.374Z,22.56
2023-05-02T11:10:22.732Z,22.82
2023-05-02T11:12:52.162Z,22.94
2023-05-02T11:15:28.922Z,23.20
2023-05-02T11:18:11.697Z,23.47
2023-05-02T11:20:40.324Z,23.74
2023-05-02T11:23:23.031Z,23.82
2023-05-02T11:25:54.400Z,23.84
2023-05-02T11:28:37.198Z,23.48
2023-05-02T11:31:05.530Z,23.19
2023-05-02T11:33:36.011Z,23.22
2023-05-02T11:36:16.714Z,23.41
2023-05-02T11:38:44.472Z,23.69
2023-05-02T11:41:15.081Z,24.07
2023-05-02T11:43:42.836Z,24.39
2023-05-02T11:46:20.488Z,24.64
2023-05-02T11:48:51.185Z,24.74
2023-05-02T11:51:23.038Z,24.84
2023-05-02T11:53:50.693Z,24.96
2023-05-02T11:56:17.842Z,24.99
2023-05-02T11:58:48.266Z,24.95
2023-05-02T12:01:19.008Z,24.96
2023-05-02T12:04:07.831Z,25.03
2023-05-02T12:06:35.475Z,25.26
2023-05-02T12:09:20.609Z,25.52
2023-05-02T12:11:52.875Z,25.71
2023-05-02T12:14:30.152Z,25.88
2023-05-02T12:16:58.665Z,26.13
2023-05-02T12:19:25.889Z,26.26
2023-05-02T12:21:53.257Z,26.46
2023-05-02T12:24:21.592Z,26.72
2023-05-02T12:26:49.757Z,26.52
2023-05-02T12:29:18.192Z,26.35
2023-05-02T12:31:55.145Z,26.52
2023-05-02T12:34:35.288Z,26.69
2023-05-02T12:37:03.664Z,26.70
2023-05-02T12:39:42.008Z,26.68
2023-05-02T12:42:16.051Z,26.50
2023-05-02T12:44:45.947Z,26.53
2023-05-02T12:47:14.448Z,26.50
2023-05-02T12:49:57.679Z,26.48
2023-05-02T12:52:51.251Z,26.45
2023-05-02T12:55:28.397Z,26.51
2023-05-02T12:58:05.290Z,26.55
2023-05-02T13:00:33.197Z,26.64
2023-05-02T13:03:00.488Z,26.74
2023-05-02T13:05:27.649Z,26.79
2023-05-02T13:07:56.860Z,27.00
2023-05-02T13:10:25.336Z,26.93
2023-05-02T13:12:53.651Z,26.87
2023-05-02T13:15:21.318Z,26.71
2023-05-02T13:17:51.056Z,26.48
2023-05-02T13:20:19.164Z,26.21
2023-05-02T13:22:46.305Z,26.25
2023-05-02T13:25:13.351Z,26.31
2023-05-02T13:27:41.418Z,26.19
2023-05-02T13:30:10.309Z,26.08
2023-05-02T13:32:37.761Z,26.10
2023-05-02T13:35:05.960Z,26.11
2023-05-02T13:37:33.217Z,26.32
2023-05-02T13:40:02.166Z,26.44
2023-05-02T13:42:29.567Z,26.26
2023-05-02T13:44:56.819Z,26.11
2023-05-02T13:47:24.569Z,25.99
2023-05-02T13:49:51.554Z,25.89
2023-05-02T13:52:19.193Z,26.02
2023-05-02T13:54:46.653Z,26.25
2023-05-02T13:57:13.806Z,26.64
2023-05-02T13:59:41.154Z,26.90
2023-05-02T14:02:08.371Z,27.09
2023-05-02T14:04:35.623Z,27.27
2023-05-02T14:07:04.052Z,27.47
2023-05-02T14:09:32.214Z,27.78
2023-05-02T14:11:59.161Z,28.12
2023-05-02T14:14:26.309Z,28.05
2023-05-02T14:16:54.214Z,27.56
2023-05-02T14:19:21.250Z,27.03
2023-05-02T14:21:49.836Z,26.75
2023-05-02T14:24:18.636Z,26.68
2023-05-02T14:26:46.080Z,26.70
2023-05-02T14:29:14.257Z,26.71
2023-05-02T14:31:46.277Z,26.82
2023-05-02T14:34:13.485Z,26.97
2023-05-02T14:36:40.729Z,26.80
2023-05-02T14:39:07.877Z,26.54
2023-05-02T14:41:35.036Z,26.26
2023-05-02T14:44:03.608Z,26.07
2023-05-02T14:46:31.424Z,26.24
2023-05-02T14:48:58.526Z,26.62
2023-05-02T14:51:26.492Z,26.82
2023-05-02T14:53:54.593Z,27.07
2023-05-02T14:56:21.919Z,27.25
2023-05-02T14:58:49.277Z,27.33
2023-05-02T15:01:17.926Z,27.46
2023-05-02T15:04:04.273Z,27.55
2023-05-02T15:06:33.488Z,27.56
2023-05-02T15:09:01.971Z,27.39
2023-05-02T15:11:28.993Z,27.35
2023-05-02T15:13:58.836Z,27.22
2023-05-02T15:16:27.629Z,26.88
2023-05-02T15:18:57.615Z,26.74
2023-05-02T15:21:24.659Z,26.85
2023-05-02T15:23:51.807Z,27.04
2023-05-02T15:26:19.077Z,27.13
2023-05-02T15:28:46.110Z,26.95
2023-05-02T15:31:13.266Z,26.79
2023-05-02T15:33:40.924Z,26.86
2023-05-02T15:36:08.591Z,26.84
2023-05-02T15:38:39.639Z,26.68
2023-05-02T15:41:08.313Z,26.29
2023-05-02T15:43:35.672Z,25.91
2023-05-02T15:46:02.759Z,25.70
2023-05-02T15:48:31.510Z,25.33
2023-05-02T15:50:58.759Z,24.90
2023-05-02T15:53:26.021Z,24.50
2023-05-02T15:55:53.572Z,24.19
2023-05-02T15:58:20.925Z,23.94
2023-05-02T16:00:48.280Z,23.97
2023-05-02T16:03:15.970Z,23.97
2023-05-02T16:05:43.204Z,23.87
2023-05-02T16:08:10.753Z,23.84
2023-05-02T16:10:40.574Z,23.81
2023-05-02T16:13:07.722Z,23.86
2023-05-02T16:15:34.894Z,23.69
2023-05-02T16:18:02.683Z,23.29
2023-05-02T16:20:32.650Z,22.82
2023-05-02T16:23:00.210Z,22.38
2023-05-02T16:25:27.257Z,22.05
2023-05-02T16:27:55.331Z,21.76
2023-05-02T16:30:22.691Z,21.52
2023-05-02T16:32:50.060Z,21.25
2023-05-02T16:35:17.704Z,21.02
2023-05-02T16:37:44.754Z,20.80
2023-05-02T16:40:15.294Z,20.61
2023-05-02T16:42:44.599Z,20.45
2023-05-02T16:45:15.523Z,20.28
2023-05-02T16:47:43.414Z,20.06
2023-05-02T16:50:13.167Z,19.90
2023-05-02T16:52:44.952Z,19.75
2023-05-02T16:55:16.785Z,19.60
2023-05-02T16:57:44.078Z,19.42
2023-05-02T17:00:12.608Z,19.19
2023-05-02T17:02:40.027Z,18.97
2023-05-02T17:05:07.768Z,18.71
2023-05-02T17:07:37.797Z,18.48
2023-05-02T17:10:06.126Z,18.33
2023-05-02T17:12:33.541Z,18.16
2023-05-02T17:15:02.197Z,17.98
2023-05-02T17:17:31.148Z,17.75
2023-05-02T17:19:58.490Z,17.51
2023-05-02T17:22:26.651Z,17.29
2023-05-02T17:24:55.014Z,17.07
2023-05-02T17:27:22.068Z,16.82
2023-05-02T17:29:49.121Z,16.60
2023-05-02T17:32:17.263Z,16.41
2023-05-02T17:34:45.753Z,16.22
2023-05-02T17:37:13.328Z,16.03
2023-05-02T17:39:41.401Z,15.84
2023-05-02T17:42:08.450Z,15.66
2023-05-02T17:44:38.579Z,15.49
2023-05-02T17:47:06.543Z,15.33
2023-05-02T17:49:34.131Z,15.19
2023-05-02T17:52:02.086Z,15.07
2023-05-02T17:54:29.655Z,14.92
2023-05-02T17:56:57.518Z,14.78
2023-05-02T17:59:24.784Z,14.67
2023-05-02T18:01:52.289Z,14.54
2023-05-02T18:04:19.489Z,14.44
2023-05-02T18:06:46.467Z,14.38
2023-05-02T18:09:13.640Z,14.31
2023-05-02T18:11:40.778Z,14.22
2023-05-02T18:14:07.730Z,14.13
2023-05-02T18:16:36.630Z,14.07
2023-05-02T18:19:04.214Z,14.03
2023-05-02T18:21:35.735Z,13.96
2023-05-02T18:24:02.986Z,13.89
2023-05-02T18:26:30.234Z,13.82
2023-05-02T18:28:57.616Z,13.78
2023-05-02T18:31:24.658Z,13.72
2023-05-02T18:33:55.773Z,13.67
2023-05-02T18:36:27.497Z,13.62
2023-05-02T18:39:00.753Z,13.59
2023-05-02T18:41:27.856Z,13.58
2023-05-02T18:43:55.474Z,13.58
2023-05-02T18:46:23.374Z,13.56
2023-05-02T18:48:50.499Z,13.58
2023-05-02T18:51:21.113Z,13.58
2023-05-02T18:53:49.400Z,13.56
2023-05-02T18:56:16.642Z,13.54
2023-05-02T18:58:43.700Z,13.50
2023-05-02T19:01:16.897Z,13.45
2023-05-02T19:03:44.401Z,13.44
2023-05-02T19:06:12.027Z,13.47
2023-05-02T19:08:40.551Z,13.49
2023-05-02T19:11:07.736Z,13.49
2023-05-02T19:13:34.805Z,13.46
2023-05-02T19:16:01.957Z,13.42
2023-05-02T19:18:29.126Z,13.35
2023-05-02T19:20:56.336Z,13.30
2023-05-02T19:23:23.398Z,13.26
2023-05-02T19:25:50.591Z,13.21
2023-05-02T19:28:22.636Z,13.15
2023-05-02T19:30:49.660Z,13.07
2023-05-02T19:33:16.954Z,12.99
2023-05-02T19:35:44.978Z,12.95
2023-05-02T19:38:12.849Z,12.93
2023-05-02T19:40:40.099Z,12.91
2023-05-02T19:43:07.051Z,12.87
2023-05-02T19:45:34.114Z,12.82
2023-05-02T19:48:01.407Z,12.76
2023-05-02T19:50:28.904Z,12.70
2023-05-02T19:52:56.885Z,12.64
2023-05-02T19:55:24.055Z,12.59
2023-05-02T19:57:51.177Z,12.54
2023-05-02T20:00:18.559Z,12.48
2023-05-02T20:02:46.183Z,12.40
2023-05-02T20:05:13.546Z,12.33
2023-05-02T20:07:42.762Z,12.24
2023-05-02T20:10:10.110Z,12.16
2023-05-02T20:12:39.617Z,12.10
2023-05-02T20:15:07.269Z,12.08
2023-05-02T20:17:34.461Z,12.07
2023-05-02T20:20:07.519Z,12.08
2023-05-02T20:23:02.636Z,12.12
2023-05-02T20:25:29.968Z,12.18
2023-05-02T20:27:59.778Z,12.20
2023-05-02T20:30:27.154Z,12.22
2023-05-02T20:32:55.704Z,12.23
2023-05-02T20:35:23.064Z,12.25
2023-05-02T20:39:12.185Z,12.28
2023-05-02T20:41:39.490Z,12.23
2023-05-02T20:44:06.650Z,12.23
2023-05-02T20:46:34.180Z,12.27
2023-05-02T20:49:05.967Z,12.33
2023-05-02T20:51:33.010Z,12.37
2023-05-02T20:54:00.262Z,12.42
2023-05-02T20:56:27.624Z,12.48
2023-05-02T20:58:56.214Z,12.54
2023-05-02T21:01:23.357Z,12.59
2023-05-02T21:03:50.738Z,12.61
2023-05-02T21:06:19.596Z,12.62
2023-05-02T21:08:46.959Z,12.60
2023-05-02T21:11:15.650Z,12.58
2023-05-02T21:13:43.633Z,12.60
2023-05-02T21:16:16.727Z,12.62
2023-05-02T21:18:46.519Z,12.63
2023-05-02T21:21:17.989Z,12.65
2023-05-02T21:23:51.978Z,12.67
2023-05-02T21:26:20.574Z,12.68
2023-05-02T21:28:47.923Z,12.69
2023-05-02T21:31:18.691Z,12.69
2023-05-02T21:33:46.109Z,12.67
2023-05-02T21:36:13.055Z,12.63
2023-05-02T21:38:42.863Z,12.56
2023-05-02T21:41:09.808Z,12.49
2023-05-02T21:43:39.193Z,12.43
2023-05-02T21:46:07.295Z,12.36
2023-05-02T21:48:35.152Z,12.28
2023-05-02T21:51:07.484Z,12.25
2023-05-02T21:53:34.587Z,12.18
2023-05-02T21:56:01.729Z,12.11
2023-05-02T21:58:32.279Z,12.08
2023-05-02T22:00:59.759Z,12.09
2023-05-02T22:03:42.631Z,12.13
2023-05-02T22:06:10.778Z,12.21
2023-05-02T22:08:38.273Z,12.32
2023-05-02T22:11:10.744Z,12.41
2023-05-02T22:13:38.506Z,12.49
2023-05-02T22:16:06.974Z,12.53
2023-05-02T22:18:35.887Z,12.56
2023-05-02T22:21:03.844Z,12.61
2023-05-02T22:23:31.370Z,12.70
2023-05-02T22:25:59.031Z,12.78
2023-05-02T22:28:27.245Z,12.85
2023-05-02T22:30:59.011Z,12.90
2023-05-02T22:33:30.664Z,12.97
2023-05-02T22:36:18.177Z,13.02
2023-05-02T22:38:46.148Z,13.06
2023-05-02T22:41:13.400Z,13.09
2023-05-02T22:43:40.548Z,13.13
2023-05-02T22:46:07.627Z,13.16
2023-05-02T22:48:34.746Z,13.16
2023-05-02T22:51:02.404Z,13.17
2023-05-02T22:53:38.981Z,13.18
2023-05-02T22:56:07.056Z,13.19
2023-05-02T22:58:34.101Z,13.20
2023-05-02T23:01:05.257Z,13.20
2023-05-02T23:03:35.686Z,13.20
2023-05-02T23:06:03.675Z,13.20
2023-05-02T23:08:30.881Z,13.19
2023-05-02T23:10:57.939Z,13.18
2023-05-02T23:13:26.234Z,13.17
2023-05-02T23:16:02.622Z,13.17
2023-05-02T23:18:29.838Z,13.16
2023-05-02T23:20:57.088Z,13.18
2023-05-02T23:23:24.547Z,13.17
2023-05-02T23:25:52.613Z,13.17
2023-05-02T23:28:19.776Z,13.16
2023-05-02T23:30:46.925Z,13.13
2023-05-02T23:33:16.759Z,13.11
2023-05-02T23:35:43.776Z,13.09
2023-05-02T23:38:10.968Z,13.06
2023-05-02T23:40:39.421Z,13.04
2023-05-02T23:43:08.846Z,13.03
2023-05-02T23:45:36.193Z,12.99
2023-05-02T23:48:04.762Z,12.95
2023-05-02T23:50:34.795Z,12.90
2023-05-02T23:53:01.845Z,12.88
2023-05-02T23:55:32.188Z,12.85
2023-05-02T23:58:01.683Z,12.82
